Time;durP1;ratioP1;P1;durP2;ratioP2;P2;SDS_P1;SDS_P2;PMS_P1;PMS_P2;Temp;Humidity;BMP_temperature;BMP_pressure;BME280_temperature;BME280_humidity;BME280_pressure;Samples;Min_cycle;Max_cycle;Signal;HPM_P1;HPM_P2
2022/08/29 00:01:30;;;;;;;12.18;5.68;;;14.30;99.90;;;;;;5069555;28;20063;-76
2022/08/29 00:03:58;;;;;;;10.77;5.30;;;14.30;99.90;;;;;;5068439;28;20071;-76
2022/08/29 00:06:24;;;;;;;12.23;4.60;;;14.20;99.90;;;;;;5067753;28;20383;-76
2022/08/29 00:08:49;;;;;;;16.30;6.50;;;14.10;99.90;;;;;;5069254;28;20032;-76
2022/08/29 00:11:15;;;;;;;16.75;6.00;;;14.10;99.90;;;;;;5068782;28;20033;-76
2022/08/29 00:13:41;;;;;;;13.98;5.70;;;14.00;99.90;;;;;;5067924;28;20524;-76
2022/08/29 00:16:07;;;;;;;23.15;5.60;;;13.90;99.90;;;;;;5067622;28;20036;-76
2022/08/29 00:18:34;;;;;;;18.17;6.25;;;13.90;99.90;;;;;;5069447;28;20488;-76
2022/08/29 00:21:00;;;;;;;11.98;5.03;;;13.80;99.90;;;;;;5069302;28;20045;-76
2022/08/29 00:23:26;;;;;;;13.23;5.65;;;13.80;99.90;;;;;;5069312;28;20032;-76
2022/08/29 00:25:51;;;;;;;15.18;4.93;;;13.80;99.90;;;;;;5067733;28;20044;-76
2022/08/29 00:28:17;;;;;;;16.15;6.72;;;13.80;99.90;;;;;;5069144;28;20200;-76
2022/08/29 00:30:43;;;;;;;14.05;6.20;;;13.70;99.90;;;;;;5068935;28;20488;-77
2022/08/29 00:33:09;;;;;;;10.73;4.95;;;13.70;99.90;;;;;;5068627;28;20032;-76
2022/08/29 00:35:37;;;;;;;10.75;4.93;;;13.70;99.90;;;;;;5067573;28;20013;-76
2022/08/29 00:38:05;;;;;;;19.27;6.07;;;13.70;99.90;;;;;;5067307;28;20508;-77
2022/08/29 00:40:35;;;;;;;12.38;5.03;;;13.70;99.90;;;;;;5069340;28;20028;-77
2022/08/29 00:43:01;;;;;;;16.33;5.85;;;13.70;99.90;;;;;;5067682;28;20032;-77
2022/08/29 00:45:27;;;;;;;19.25;7.57;;;13.70;99.90;;;;;;5069076;28;20050;-76
2022/08/29 00:48:08;;;;;;;17.77;7.13;;;13.70;99.90;;;;;;5067326;28;20454;-77
2022/08/29 00:50:39;;;;;;;17.30;5.68;;;13.60;99.90;;;;;;5064756;28;20044;-77
2022/08/29 00:53:10;;;;;;;17.08;5.93;;;13.60;99.90;;;;;;5065569;28;20024;-76
2022/08/29 00:55:37;;;;;;;15.07;5.93;;;13.60;99.90;;;;;;5064915;28;20032;-77
2022/08/29 00:58:15;;;;;;;15.18;5.95;;;13.60;99.90;;;;;;5067840;28;20033;-77
2022/08/29 01:00:42;;;;;;;12.80;5.45;;;13.60;99.90;;;;;;5067721;28;20740;-77
2022/08/29 01:03:08;;;;;;;19.85;6.45;;;13.60;99.90;;;;;;5058037;28;20032;-77
2022/08/29 01:05:36;;;;;;;12.73;5.57;;;13.60;99.90;;;;;;5066679;28;20339;-77
2022/08/29 01:08:03;;;;;;;10.93;4.72;;;13.60;99.90;;;;;;5068278;28;20037;-77
2022/08/29 01:13:13;;;;;;;13.38;5.25;;;13.60;99.90;;;;;;5067003;28;20472;-77
2022/08/29 01:15:42;;;;;;;13.27;5.50;;;13.50;99.90;;;;;;5068704;28;20024;-77
2022/08/29 01:18:10;;;;;;;16.00;5.13;;;13.50;99.90;;;;;;5066262;28;20040;-77
2022/08/29 01:21:01;;;;;;;13.32;5.22;;;13.50;99.90;;;;;;5067390;28;20067;-77
2022/08/29 01:23:34;;;;;;;12.43;5.32;;;13.50;99.90;;;;;;5060995;28;20075;-77
2022/08/29 01:26:02;;;;;;;13.52;5.10;;;13.40;99.90;;;;;;5066644;28;20032;-77
2022/08/29 01:28:36;;;;;;;12.32;5.35;;;13.30;99.90;;;;;;5068609;28;20037;-77
2022/08/29 01:31:07;;;;;;;20.98;7.03;;;13.30;99.90;;;;;;5066731;28;20044;-77
2022/08/29 01:33:46;;;;;;;14.07;5.85;;;13.30;99.90;;;;;;5066877;28;20032;-77
2022/08/29 01:36:16;;;;;;;10.52;4.97;;;13.30;99.90;;;;;;5065724;28;20480;-77
2022/08/29 01:38:42;;;;;;;15.38;5.28;;;13.30;99.90;;;;;;5060650;28;20476;-77
2022/08/29 01:41:09;;;;;;;10.77;4.93;;;13.20;99.90;;;;;;5068158;28;20039;-77
2022/08/29 01:43:41;;;;;;;10.65;5.28;;;13.20;99.90;;;;;;5065807;28;20040;-77
2022/08/29 01:46:08;;;;;;;9.15;4.93;;;13.20;99.90;;;;;;5058601;28;20058;-77
2022/08/29 01:48:36;;;;;;;16.52;5.38;;;13.20;99.90;;;;;;5067128;28;20039;-77
2022/08/29 01:51:02;;;;;;;12.68;4.60;;;13.10;99.90;;;;;;5066946;28;20036;-77
2022/08/29 01:53:27;;;;;;;9.27;4.55;;;13.10;99.90;;;;;;5067552;28;20036;-77
2022/08/29 01:55:53;;;;;;;14.00;5.32;;;13.10;99.90;;;;;;5068349;28;20447;-77
2022/08/29 01:58:19;;;;;;;11.85;5.32;;;13.10;99.90;;;;;;5067256;28;20052;-76
2022/08/29 02:00:44;;;;;;;10.10;4.57;;;13.00;99.90;;;;;;5066358;28;20043;-77
2022/08/29 02:03:10;;;;;;;14.02;5.28;;;13.00;99.90;;;;;;5070723;28;20388;-77
2022/08/29 02:05:35;;;;;;;11.82;5.40;;;12.90;99.90;;;;;;5071023;28;20024;-77
2022/08/29 02:08:01;;;;;;;14.80;5.22;;;12.90;99.90;;;;;;5069921;28;20067;-77
2022/08/29 02:10:26;;;;;;;14.05;6.40;;;12.90;99.90;;;;;;5070310;28;20036;-77
2022/08/29 02:12:52;;;;;;;18.10;5.10;;;12.80;99.90;;;;;;5069100;28;20035;-77
2022/08/29 02:15:20;;;;;;;17.42;5.40;;;12.80;99.90;;;;;;5072485;28;20052;-76
2022/08/29 02:17:46;;;;;;;12.57;5.53;;;12.70;99.90;;;;;;5070805;28;20063;-77
2022/08/29 02:20:11;;;;;;;20.42;5.60;;;12.70;99.90;;;;;;5071199;28;20048;-76
2022/08/29 02:22:39;;;;;;;12.80;5.07;;;12.70;99.90;;;;;;5070155;28;20028;-77
2022/08/29 02:25:40;;;;;;;13.45;6.28;;;12.70;99.90;;;;;;5069303;28;20530;-77
2022/08/29 02:27:51;;;;;;;15.05;4.70;;;12.70;99.90;;;;;;5070928;28;20473;-77
2022/08/29 02:30:18;;;;;;;10.80;4.50;;;12.60;99.90;;;;;;5072190;28;20039;-77
2022/08/29 02:32:44;;;;;;;15.25;4.95;;;12.70;99.90;;;;;;5069725;28;20056;-77
2022/08/29 02:35:09;;;;;;;12.95;5.03;;;12.70;99.90;;;;;;5071792;28;20060;-77
2022/08/29 02:37:35;;;;;;;10.73;5.22;;;12.70;99.90;;;;;;5069072;28;20021;-77
2022/08/29 02:40:00;;;;;;;16.00;5.53;;;12.60;99.90;;;;;;5070376;28;20028;-77
2022/08/29 02:42:26;;;;;;;15.77;5.10;;;12.70;99.90;;;;;;5068783;28;20120;-77
2022/08/29 02:44:51;;;;;;;14.63;5.05;;;12.60;99.90;;;;;;5068446;28;20005;-77
2022/08/29 02:47:17;;;;;;;13.32;4.65;;;12.50;99.90;;;;;;5071255;28;20123;-77
2022/08/29 02:49:43;;;;;;;15.75;5.60;;;12.60;99.90;;;;;;5069894;28;20037;-77
2022/08/29 02:52:09;;;;;;;14.50;4.93;;;12.50;99.90;;;;;;5070387;28;20479;-76
2022/08/29 02:54:34;;;;;;;18.02;5.93;;;12.50;99.90;;;;;;5069684;28;20108;-77
2022/08/29 02:57:00;;;;;;;12.30;4.90;;;12.50;99.90;;;;;;5070441;28;20040;-77
2022/08/29 02:59:26;;;;;;;10.43;5.35;;;12.50;99.90;;;;;;5071683;28;20078;-76
2022/08/29 03:01:52;;;;;;;16.77;6.05;;;12.60;99.90;;;;;;5068401;28;20043;-76
2022/08/29 03:04:18;;;;;;;15.25;5.32;;;12.60;99.90;;;;;;5069968;28;20037;-77
2022/08/29 03:06:44;;;;;;;19.65;6.03;;;12.80;99.90;;;;;;5071381;28;20097;-76
2022/08/29 03:09:09;;;;;;;14.73;4.93;;;12.90;99.90;;;;;;5068503;28;20043;-77
2022/08/29 03:11:35;;;;;;;20.65;5.55;;;13.10;99.90;;;;;;5071647;28;20052;-77
2022/08/29 03:14:00;;;;;;;22.67;6.68;;;13.20;99.90;;;;;;5067677;28;20031;-77
2022/08/29 03:16:26;;;;;;;17.92;5.72;;;13.20;99.90;;;;;;5071432;28;20060;-76
2022/08/29 03:18:52;;;;;;;21.65;6.28;;;13.30;99.90;;;;;;5069923;28;20028;-77
2022/08/29 03:21:20;;;;;;;27.70;8.27;;;13.30;99.90;;;;;;5070474;28;20079;-77
2022/08/29 03:23:47;;;;;;;17.90;5.65;;;13.40;99.90;;;;;;5069152;28;20107;-77
2022/08/29 03:26:12;;;;;;;19.63;5.93;;;13.40;99.90;;;;;;5068558;28;20085;-77
2022/08/29 03:28:38;;;;;;;18.48;5.55;;;13.40;99.90;;;;;;5067452;28;20021;-77
2022/08/29 03:31:04;;;;;;;15.18;4.88;;;13.40;99.90;;;;;;5067977;28;20060;-76
2022/08/29 03:33:29;;;;;;;13.50;5.55;;;13.40;99.90;;;;;;5068812;28;20107;-77
2022/08/29 03:35:55;;;;;;;16.70;5.38;;;13.30;99.90;;;;;;5069997;28;20033;-77
2022/08/29 03:38:21;;;;;;;15.43;5.60;;;13.30;99.90;;;;;;5069347;28;20499;-77
2022/08/29 03:40:47;;;;;;;10.25;5.15;;;13.40;99.90;;;;;;5069024;28;20056;-77
2022/08/29 03:43:12;;;;;;;21.77;5.55;;;13.40;99.90;;;;;;5064278;28;20457;-77
2022/08/29 03:45:38;;;;;;;18.60;5.43;;;13.30;99.90;;;;;;5070121;28;20131;-77
2022/08/29 03:48:04;;;;;;;12.55;5.07;;;13.30;99.90;;;;;;5069502;28;20029;-76
2022/08/29 03:50:31;;;;;;;17.20;5.15;;;13.30;99.90;;;;;;5066047;28;20028;-77
2022/08/29 03:52:58;;;;;;;15.00;5.03;;;13.30;99.90;;;;;;5067881;28;20485;-77
2022/08/29 03:55:24;;;;;;;16.80;4.72;;;13.20;99.90;;;;;;5068466;28;20478;-77
2022/08/29 03:57:49;;;;;;;18.45;5.43;;;13.20;99.90;;;;;;5070532;28;20029;-77
2022/08/29 04:00:16;;;;;;;11.13;4.72;;;13.20;99.90;;;;;;5070452;28;20029;-77
2022/08/29 04:02:44;;;;;;;17.05;4.93;;;13.30;99.90;;;;;;5070874;28;20493;-76
2022/08/29 04:05:11;;;;;;;12.27;4.55;;;13.30;99.90;;;;;;5085469;28;20021;-76
2022/08/29 04:07:46;;;;;;;18.73;5.10;;;13.30;99.90;;;;;;5068929;28;20032;-77
2022/08/29 04:10:16;;;;;;;21.92;4.95;;;13.30;99.90;;;;;;5067895;28;20036;-77
2022/08/29 04:12:42;;;;;;;14.88;6.00;;;13.40;99.90;;;;;;5070359;28;20099;-77
2022/08/29 04:15:08;;;;;;;19.67;4.72;;;13.30;99.90;;;;;;5071642;28;20473;-76
2022/08/29 04:17:37;;;;;;;15.20;4.68;;;13.40;99.90;;;;;;5072242;28;20225;-77
2022/08/29 04:20:05;;;;;;;17.65;5.15;;;13.40;99.90;;;;;;5069670;28;20032;-77
2022/08/29 04:22:30;;;;;;;20.40;5.05;;;13.40;99.90;;;;;;5069124;28;20037;-77
2022/08/29 04:24:56;;;;;;;13.40;4.35;;;13.40;99.90;;;;;;5071462;28;20040;-76
2022/08/29 04:27:22;;;;;;;24.23;5.57;;;13.50;99.90;;;;;;5073732;28;20029;-76
2022/08/29 04:29:47;;;;;;;9.05;4.63;;;13.50;99.90;;;;;;5066452;28;20033;-77
2022/08/29 04:32:14;;;;;;;8.80;4.10;;;13.60;99.90;;;;;;5068977;28;20107;-76
2022/08/29 04:34:40;;;;;;;15.73;4.60;;;13.60;99.90;;;;;;5068524;28;20028;-77
2022/08/29 04:37:06;;;;;;;20.67;5.32;;;13.60;99.90;;;;;;5069635;28;20449;-76
2022/08/29 04:39:33;;;;;;;20.45;5.40;;;13.70;99.90;;;;;;5069803;28;20032;-76
2022/08/29 04:41:58;;;;;;;18.02;4.32;;;13.70;99.90;;;;;;5067654;28;20063;-76
2022/08/29 04:44:24;;;;;;;17.55;4.80;;;13.80;99.90;;;;;;5064644;28;20064;-77
2022/08/29 04:46:49;;;;;;;20.27;4.28;;;13.80;99.90;;;;;;5065819;28;20075;-76
2022/08/29 04:49:15;;;;;;;17.65;4.85;;;13.90;99.90;;;;;;5065919;28;20032;-76
2022/08/29 04:51:40;;;;;;;17.50;4.20;;;14.00;99.90;;;;;;5067942;28;20039;-76
2022/08/29 04:54:06;;;;;;;18.20;4.22;;;14.00;99.90;;;;;;5066958;28;20032;-76
2022/08/29 04:56:32;;;;;;;11.02;4.20;;;14.10;99.90;;;;;;5066660;28;20032;-77
2022/08/29 04:58:57;;;;;;;14.45;4.30;;;14.10;99.90;;;;;;5065378;28;20396;-76
2022/08/29 05:01:24;;;;;;;13.45;4.88;;;14.20;99.90;;;;;;5073624;28;20028;-77
2022/08/29 05:03:51;;;;;;;13.90;4.18;;;14.30;99.90;;;;;;5065899;28;20296;-76
2022/08/29 05:06:20;;;;;;;9.82;3.75;;;14.30;99.90;;;;;;5072490;28;20119;-77
2022/08/29 05:08:46;;;;;;;11.15;3.95;;;14.30;99.90;;;;;;5068307;28;20024;-76
2022/08/29 05:11:15;;;;;;;12.02;3.78;;;14.40;99.90;;;;;;5068899;28;20468;-76
2022/08/29 05:13:42;;;;;;;14.20;4.47;;;14.40;99.90;;;;;;5065207;28;20028;-76
2022/08/29 05:16:10;;;;;;;8.15;3.67;;;14.50;99.90;;;;;;5069481;28;20473;-76
2022/08/29 05:18:36;;;;;;;12.23;3.85;;;14.40;99.90;;;;;;5058810;28;20024;-77
2022/08/29 05:21:01;;;;;;;5.95;3.50;;;14.40;99.90;;;;;;5067773;28;20119;-77
2022/08/29 05:23:27;;;;;;;12.73;3.63;;;14.40;99.90;;;;;;5069634;28;20462;-77
2022/08/29 05:25:58;;;;;;;9.77;3.50;;;14.40;99.90;;;;;;5069982;28;20035;-76
2022/08/29 05:28:25;;;;;;;15.18;4.55;;;14.50;99.90;;;;;;5065884;28;20550;-77
2022/08/29 05:30:51;;;;;;;12.40;4.22;;;14.40;99.90;;;;;;5071536;28;20028;-77
2022/08/29 05:33:16;;;;;;;27.88;5.40;;;14.40;99.90;;;;;;5068094;28;20035;-77
2022/08/29 05:35:45;;;;;;;11.02;4.20;;;14.40;99.90;;;;;;5068128;28;20107;-77
2022/08/29 05:38:11;;;;;;;10.32;3.45;;;14.40;99.90;;;;;;5065248;28;20040;-77
2022/08/29 05:40:37;;;;;;;12.20;3.67;;;14.50;99.90;;;;;;5069971;28;20029;-77
2022/08/29 05:43:03;;;;;;;11.73;3.67;;;14.60;99.90;;;;;;5067082;28;20056;-77
2022/08/29 05:45:28;;;;;;;11.52;3.75;;;14.70;99.90;;;;;;5064761;28;20052;-77
2022/08/29 05:47:56;;;;;;;13.05;3.97;;;14.80;99.90;;;;;;5066558;28;20087;-77
2022/08/29 05:50:22;;;;;;;11.30;3.75;;;14.90;99.90;;;;;;5068385;28;20051;-77
2022/08/29 05:52:57;;;;;;;20.98;4.68;;;14.90;99.90;;;;;;5068108;28;20028;-77
2022/08/29 05:55:22;;;;;;;9.30;4.00;;;15.00;99.90;;;;;;5059660;28;20108;-77
2022/08/29 05:57:57;;;;;;;10.52;3.72;;;15.10;99.90;;;;;;5069016;28;20528;-77
2022/08/29 06:00:23;;;;;;;11.82;4.03;;;15.10;99.90;;;;;;5065723;28;20447;-77
2022/08/29 06:02:54;;;;;;;7.65;3.47;;;15.20;99.90;;;;;;5060715;28;20028;-77
2022/08/29 06:05:20;;;;;;;8.77;3.10;;;15.30;99.90;;;;;;5062328;28;20028;-77
2022/08/29 06:07:58;;;;;;;4.97;2.60;;;15.30;99.90;;;;;;5066630;28;20530;-77
2022/08/29 06:10:23;;;;;;;8.35;3.47;;;15.40;99.90;;;;;;5066653;28;20094;-77
2022/08/29 06:12:52;;;;;;;7.35;2.80;;;15.50;99.90;;;;;;5069937;28;20024;-78
2022/08/29 06:15:18;;;;;;;7.03;3.00;;;15.50;99.90;;;;;;5068214;28;20043;-77
2022/08/29 06:17:43;;;;;;;7.60;3.10;;;15.50;99.90;;;;;;5070182;28;20033;-77
2022/08/29 06:20:10;;;;;;;9.93;3.20;;;15.60;99.90;;;;;;5071855;28;20059;-77
2022/08/29 06:22:36;;;;;;;10.68;3.17;;;15.60;99.90;;;;;;5074063;28;20548;-77
2022/08/29 06:25:09;;;;;;;12.75;3.35;;;15.70;99.90;;;;;;5068889;28;20227;-77
2022/08/29 06:27:34;;;;;;;9.25;3.20;;;15.70;99.90;;;;;;5068480;28;20033;-77
2022/08/29 06:30:06;;;;;;;5.80;3.08;;;15.70;99.90;;;;;;5065712;28;20106;-77
2022/08/29 06:32:32;;;;;;;10.15;4.05;;;15.80;99.90;;;;;;5068210;28;20044;-77
2022/08/29 06:34:57;;;;;;;16.55;3.40;;;15.80;99.90;;;;;;5066834;28;20582;-77
2022/08/29 06:37:23;;;;;;;6.35;2.92;;;15.90;99.90;;;;;;5069323;28;20064;-77
2022/08/29 06:39:49;;;;;;;13.02;3.40;;;15.90;99.90;;;;;;5066646;28;20116;-77
2022/08/29 06:42:17;;;;;;;5.85;3.05;;;15.90;99.90;;;;;;5067816;28;20111;-77
2022/08/29 06:44:46;;;;;;;13.93;3.45;;;16.00;99.90;;;;;;5069092;28;20040;-77
2022/08/29 06:47:11;;;;;;;7.22;3.20;;;16.00;99.90;;;;;;5069863;28;20052;-77
2022/08/29 06:49:37;;;;;;;10.23;3.13;;;16.00;99.90;;;;;;5070387;28;20435;-77
2022/08/29 06:52:03;;;;;;;13.70;4.10;;;16.00;99.90;;;;;;5073054;28;20027;-77
2022/08/29 06:54:28;;;;;;;14.23;3.67;;;16.00;99.90;;;;;;5072389;28;20033;-76
2022/08/29 06:56:58;;;;;;;13.60;3.25;;;16.10;99.90;;;;;;5073257;28;20033;-77
2022/08/29 06:59:24;;;;;;;15.75;3.97;;;16.10;99.90;;;;;;5068535;28;20400;-76
2022/08/29 07:01:59;;;;;;;13.23;4.03;;;16.20;99.90;;;;;;5072925;28;20068;-77
2022/08/29 07:04:25;;;;;;;14.43;3.50;;;16.30;99.90;;;;;;5070326;28;20029;-77
2022/08/29 07:06:57;;;;;;;17.60;4.13;;;16.30;99.90;;;;;;5072787;28;20090;-76
2022/08/29 07:09:22;;;;;;;18.27;3.75;;;16.40;99.90;;;;;;5071962;28;20511;-77
2022/08/29 07:11:57;;;;;;;16.88;3.95;;;16.40;99.90;;;;;;5072692;28;20060;-77
2022/08/29 07:14:22;;;;;;;17.27;4.40;;;16.50;99.90;;;;;;5072010;28;20511;-77
2022/08/29 07:17:00;;;;;;;23.45;4.35;;;16.50;99.90;;;;;;5072801;28;20028;-77
2022/08/29 07:19:26;;;;;;;18.25;4.40;;;16.60;99.90;;;;;;5068410;28;20032;-77
2022/08/29 07:21:58;;;;;;;14.63;4.13;;;16.60;99.90;;;;;;5072572;28;20465;-77
2022/08/29 07:24:24;;;;;;;13.60;3.53;;;16.70;99.90;;;;;;5069732;28;20365;-77
2022/08/29 07:26:53;;;;;;;12.30;3.38;;;16.80;99.90;;;;;;5070997;28;20043;-77
2022/08/29 07:29:20;;;;;;;9.73;3.63;;;16.80;99.90;;;;;;5071772;28;20039;-77
2022/08/29 07:31:52;;;;;;;14.20;3.33;;;16.80;99.90;;;;;;5072323;28;20034;-77
2022/08/29 07:34:19;;;;;;;12.25;4.38;;;16.90;99.90;;;;;;5071776;28;20457;-77
2022/08/29 07:36:49;;;;;;;12.90;3.50;;;16.90;99.90;;;;;;5072252;28;20029;-77
2022/08/29 07:39:17;;;;;;;11.60;3.50;;;17.00;99.90;;;;;;5066683;28;20555;-77
2022/08/29 07:41:55;;;;;;;11.43;4.00;;;17.00;99.90;;;;;;5069875;28;20036;-76
2022/08/29 07:44:21;;;;;;;10.73;4.00;;;17.20;99.90;;;;;;5067356;28;20024;-77
2022/08/29 07:47:12;;;;;;;9.38;3.33;;;17.20;99.90;;;;;;5066459;28;20493;-77
2022/08/29 07:49:38;;;;;;;24.30;4.05;;;17.20;99.90;;;;;;5062178;28;20032;-77
2022/08/29 07:52:03;;;;;;;11.68;3.70;;;17.30;99.90;;;;;;5067116;28;20035;-77
2022/08/29 07:54:28;;;;;;;21.02;4.03;;;17.30;99.90;;;;;;5070134;28;20031;-77
2022/08/29 07:56:58;;;;;;;11.90;3.53;;;17.30;99.90;;;;;;5067764;28;20040;-77
2022/08/29 07:59:23;;;;;;;16.63;4.57;;;17.30;99.90;;;;;;5067835;28;20056;-77
2022/08/29 08:01:52;;;;;;;18.83;4.07;;;17.30;99.90;;;;;;5068615;28;20470;-77
2022/08/29 08:04:18;;;;;;;16.30;4.32;;;17.40;99.90;;;;;;5070745;28;20115;-77
2022/08/29 08:06:46;;;;;;;14.55;3.47;;;17.40;99.90;;;;;;5068077;28;20437;-77
2022/08/29 08:09:14;;;;;;;10.77;4.00;;;17.40;99.90;;;;;;5069335;28;20016;-76
2022/08/29 08:11:40;;;;;;;10.50;3.35;;;17.40;99.90;;;;;;5073318;28;20385;-77
2022/08/29 08:14:06;;;;;;;17.48;4.40;;;17.50;99.90;;;;;;5069147;28;20438;-77
2022/08/29 08:16:32;;;;;;;16.45;4.30;;;17.60;99.90;;;;;;5069896;28;20381;-77
2022/08/29 08:18:58;;;;;;;19.20;4.20;;;17.60;99.90;;;;;;5066910;28;20064;-77
2022/08/29 08:21:25;;;;;;;14.05;4.15;;;17.70;99.90;;;;;;5070329;28;20059;-77
2022/08/29 08:23:51;;;;;;;12.57;3.85;;;17.70;99.90;;;;;;5076264;28;20103;-77
2022/08/29 08:26:18;;;;;;;13.55;4.30;;;17.70;99.90;;;;;;5073298;28;20384;-77
2022/08/29 08:28:49;;;;;;;11.82;3.35;;;17.70;99.90;;;;;;5069851;28;20423;-77
2022/08/29 08:31:16;;;;;;;17.95;4.30;;;17.70;99.90;;;;;;5073408;28;20025;-77
2022/08/29 08:33:43;;;;;;;13.35;4.00;;;17.70;99.90;;;;;;5066299;28;20036;-77
2022/08/29 08:36:28;;;;;;;12.18;3.17;;;17.80;99.90;;;;;;5078426;28;20408;-77
2022/08/29 08:39:03;;;;;;;19.33;3.70;;;17.80;99.90;;;;;;5071485;28;20078;-76
2022/08/29 08:42:04;;;;;;;11.82;3.10;;;17.80;99.90;;;;;;5069342;28;20425;-77
2022/08/29 08:44:56;;;;;;;11.00;3.28;;;17.80;99.90;;;;;;5068604;28;20107;-77
2022/08/29 08:47:30;;;;;;;17.63;3.50;;;17.90;99.90;;;;;;5068467;28;20127;-77
2022/08/29 08:50:08;;;;;;;11.65;3.33;;;17.90;99.90;;;;;;5067406;28;20129;-77
2022/08/29 08:53:06;;;;;;;15.30;3.20;;;18.00;99.90;;;;;;5068712;28;20024;-77
2022/08/29 08:55:48;;;;;;;13.95;4.03;;;18.00;99.90;;;;;;5066582;28;20024;-78
2022/08/29 08:58:22;;;;;;;11.45;2.63;;;18.10;99.90;;;;;;5074374;28;20033;-78
2022/08/29 09:01:13;;;;;;;12.30;3.45;;;18.10;99.90;;;;;;5062375;28;20036;-77
2022/08/29 09:03:54;;;;;;;13.63;3.58;;;18.20;99.90;;;;;;5068233;28;20040;-77
2022/08/29 09:06:30;;;;;;;16.20;3.30;;;18.20;99.90;;;;;;5062151;28;20028;-77
2022/08/29 09:09:27;;;;;;;14.25;3.58;;;18.20;99.90;;;;;;5063234;28;20028;-77
2022/08/29 09:12:29;;;;;;;11.13;3.70;;;18.30;99.90;;;;;;5049961;28;20036;-77
2022/08/29 09:15:06;;;;;;;12.75;3.80;;;18.40;99.90;;;;;;5068598;28;20442;-77
2022/08/29 09:17:40;;;;;;;11.40;3.65;;;18.40;99.90;;;;;;5070289;28;20037;-77
2022/08/29 09:20:10;;;;;;;13.50;3.58;;;18.50;99.90;;;;;;5069405;28;20035;-77
2022/08/29 09:22:39;;;;;;;15.20;3.97;;;18.50;99.90;;;;;;5067459;28;20052;-77
2022/08/29 09:25:07;;;;;;;12.25;3.85;;;18.60;99.90;;;;;;5069054;28;20028;-77
2022/08/29 09:27:35;;;;;;;15.30;3.13;;;18.60;99.90;;;;;;5070185;28;20477;-77
2022/08/29 09:30:04;;;;;;;11.63;3.40;;;18.60;99.90;;;;;;5067865;28;20029;-77
2022/08/29 09:32:29;;;;;;;14.88;3.25;;;18.60;99.90;;;;;;5070289;28;20013;-77
2022/08/29 09:34:55;;;;;;;13.18;3.50;;;18.60;99.90;;;;;;5069893;28;20043;-77
2022/08/29 09:37:24;;;;;;;11.98;4.15;;;18.60;99.90;;;;;;5069000;28;20568;-77
2022/08/29 09:40:09;;;;;;;13.52;3.63;;;18.50;99.90;;;;;;5065635;28;20547;-78
2022/08/29 09:42:38;;;;;;;15.45;3.83;;;18.60;99.90;;;;;;5062035;28;20408;-77
2022/08/29 09:45:20;;;;;;;10.55;3.63;;;18.60;99.90;;;;;;5065106;28;20047;-77
2022/08/29 09:47:46;;;;;;;12.68;3.03;;;18.60;99.90;;;;;;5068055;28;20033;-77
2022/08/29 09:50:18;;;;;;;12.90;3.97;;;18.70;99.90;;;;;;5067506;28;20025;-77
2022/08/29 09:52:59;;;;;;;14.52;4.18;;;18.70;99.90;;;;;;5065053;28;20385;-77
2022/08/29 09:55:41;;;;;;;9.20;4.07;;;18.80;99.90;;;;;;5060796;28;20032;-77
2022/08/29 09:58:17;;;;;;;7.40;3.05;;;18.80;99.90;;;;;;5062759;28;20039;-77
2022/08/29 10:01:04;;;;;;;14.10;2.65;;;18.90;99.90;;;;;;5069509;28;20032;-77
2022/08/29 10:03:34;;;;;;;8.90;3.10;;;18.90;99.90;;;;;;5067996;28;20089;-77
2022/08/29 10:06:16;;;;;;;12.10;3.13;;;19.00;99.90;;;;;;5069061;28;20113;-78
2022/08/29 10:09:10;;;;;;;8.40;3.20;;;18.90;99.90;;;;;;5066475;28;20499;-77
2022/08/29 10:12:08;;;;;;;5.82;2.85;;;18.90;99.90;;;;;;5067960;28;20481;-77
2022/08/29 10:15:03;;;;;;;17.15;3.50;;;18.90;99.90;;;;;;5069240;28;20033;-77
2022/08/29 10:20:34;;;;;;;13.02;2.83;;;19.10;99.90;;;;;;5060498;28;20040;-77
2022/08/29 10:23:20;;;;;;;10.02;3.20;;;19.20;99.90;;;;;;5072083;28;20118;-77
2022/08/29 10:25:46;;;;;;;7.80;2.60;;;19.20;99.90;;;;;;5070871;28;20117;-77
2022/08/29 10:28:24;;;;;;;14.10;3.67;;;19.30;99.90;;;;;;5072019;28;20111;-77
2022/08/29 10:30:59;;;;;;;7.53;3.03;;;19.40;99.90;;;;;;5072628;28;20032;-77
2022/08/29 10:33:39;;;;;;;12.75;3.05;;;19.50;99.90;;;;;;5073838;28;20029;-77
2022/08/29 10:36:34;;;;;;;8.55;3.40;;;19.60;99.90;;;;;;5072848;28;20385;-77
2022/08/29 10:39:16;;;;;;;7.18;2.95;;;19.60;99.90;;;;;;5062599;28;20037;-77
2022/08/29 10:42:04;;;;;;;8.32;3.42;;;19.50;99.90;;;;;;5073657;28;20032;-77
2022/08/29 10:44:48;;;;;;;11.98;2.75;;;19.50;99.90;;;;;;5072728;28;20081;-78
2022/08/29 10:47:43;;;;;;;5.75;2.63;;;19.50;99.90;;;;;;5072995;28;20075;-78
2022/08/29 10:50:43;;;;;;;5.22;2.47;;;19.50;99.90;;;;;;5072572;28;20198;-78
2022/08/29 10:53:20;;;;;;;11.43;3.10;;;19.50;99.90;;;;;;5067175;28;20036;-77
2022/08/29 10:56:04;;;;;;;6.68;2.63;;;19.60;99.90;;;;;;5072448;28;20376;-78
2022/08/29 10:59:07;;;;;;;14.40;3.88;;;19.60;99.90;;;;;;5072790;28;20025;-78
2022/08/29 11:01:48;;;;;;;8.63;2.63;;;19.70;99.90;;;;;;5070349;28;20468;-77
2022/08/29 11:04:36;;;;;;;4.35;2.20;;;19.90;99.90;;;;;;5061440;28;20047;-77
2022/08/29 11:07:21;;;;;;;6.75;2.58;;;19.90;99.90;;;;;;5063820;28;20060;-77
2022/08/29 11:10:02;;;;;;;8.45;2.85;;;19.90;99.90;;;;;;5068457;28;20024;-77
2022/08/29 11:12:46;;;;;;;6.80;2.75;;;19.80;99.90;;;;;;5071411;28;20028;-77
2022/08/29 11:15:24;;;;;;;9.85;3.03;;;19.80;99.90;;;;;;5061485;28;20122;-77
2022/08/29 11:18:22;;;;;;;9.48;3.22;;;19.90;99.90;;;;;;5071908;28;20028;-77
2022/08/29 11:21:11;;;;;;;8.52;3.10;;;19.80;99.90;;;;;;5069595;28;20456;-77
2022/08/29 11:23:42;;;;;;;9.10;4.03;;;20.00;99.90;;;;;;5070925;28;20029;-77
2022/08/29 11:26:19;;;;;;;12.93;3.03;;;20.20;99.90;;;;;;5070830;28;20046;-77
2022/08/29 11:29:20;;;;;;;7.32;3.13;;;20.30;99.90;;;;;;5072312;28;20031;-77
2022/08/29 11:32:15;;;;;;;7.93;3.60;;;20.40;99.90;;;;;;5065191;28;20455;-77
2022/08/29 11:34:59;;;;;;;11.35;3.33;;;20.40;99.90;;;;;;5071014;28;20457;-77
2022/08/29 11:38:12;;;;;;;8.18;3.35;;;20.50;99.90;;;;;;5065655;28;20120;-77
2022/08/29 11:40:59;;;;;;;12.57;3.63;;;20.60;99.90;;;;;;5071311;28;20404;-77
2022/08/29 11:43:31;;;;;;;9.35;2.80;;;20.60;99.90;;;;;;5069139;28;20033;-77
2022/08/29 11:46:02;;;;;;;4.05;2.50;;;20.60;99.90;;;;;;5069020;28;20186;-78
2022/08/29 11:48:46;;;;;;;5.03;2.17;;;20.70;99.90;;;;;;5069039;28;20029;-77
2022/08/29 11:51:38;;;;;;;7.88;2.85;;;20.80;99.90;;;;;;5069732;28;20093;-77
2022/08/29 11:54:22;;;;;;;5.93;2.60;;;20.90;99.90;;;;;;5065059;28;20028;-77
2022/08/29 11:56:48;;;;;;;5.47;2.60;;;20.90;99.90;;;;;;5063660;28;20652;-77
2022/08/29 11:59:43;;;;;;;5.82;2.85;;;20.90;99.90;;;;;;5069872;28;20044;-78
2022/08/29 12:02:27;;;;;;;7.97;2.50;;;20.90;99.90;;;;;;5064720;28;20040;-77
2022/08/29 12:05:28;;;;;;;6.07;2.17;;;20.90;99.90;;;;;;5063105;28;20023;-77
2022/08/29 12:08:15;;;;;;;9.68;2.75;;;21.10;99.90;;;;;;5071804;28;20393;-77
2022/08/29 12:11:02;;;;;;;5.90;2.53;;;21.40;99.90;;;;;;5054426;28;20166;-77
2022/08/29 12:13:47;;;;;;;7.72;2.53;;;21.60;99.90;;;;;;5069791;28;20102;-77
2022/08/29 12:16:18;;;;;;;6.97;2.42;;;21.60;99.90;;;;;;5058584;28;20040;-78
2022/08/29 12:18:49;;;;;;;5.60;2.55;;;21.50;99.90;;;;;;5073361;28;20046;-78
2022/08/29 12:21:39;;;;;;;3.65;2.25;;;21.30;99.90;;;;;;5063647;28;20094;-78
2022/08/29 12:24:25;;;;;;;7.57;2.42;;;21.30;99.90;;;;;;5065204;28;20419;-77
2022/08/29 12:26:51;;;;;;;15.10;3.17;;;21.20;99.90;;;;;;5069050;28;20032;-77
2022/08/29 12:29:32;;;;;;;10.43;2.80;;;21.30;99.90;;;;;;5070828;28;20032;-78
2022/08/29 12:32:20;;;;;;;7.72;3.22;;;21.30;99.90;;;;;;5063526;28;20036;-78
2022/08/29 12:35:21;;;;;;;5.88;2.30;;;21.30;99.90;;;;;;5066528;28;20052;-78
2022/08/29 12:38:06;;;;;;;7.13;2.50;;;21.30;99.90;;;;;;5065513;28;20028;-77
2022/08/29 12:40:48;;;;;;;8.82;2.42;;;21.70;99.90;;;;;;5068504;28;20397;-77
2022/08/29 12:43:42;;;;;;;7.38;2.63;;;21.90;99.90;;;;;;5067896;28;20032;-77
2022/08/29 12:46:20;;;;;;;6.05;2.40;;;22.10;99.90;;;;;;5061821;28;20044;-77
2022/08/29 12:48:52;;;;;;;6.60;2.80;;;22.10;99.90;;;;;;5063782;28;20082;-77
2022/08/29 12:51:38;;;;;;;8.48;2.58;;;22.00;99.90;;;;;;5068553;28;20103;-77
2022/08/29 12:54:11;;;;;;;5.18;1.95;;;21.80;99.90;;;;;;5062000;28;20033;-77
2022/08/29 12:56:46;;;;;;;6.72;3.05;;;21.70;99.90;;;;;;5069169;28;20056;-77
2022/08/29 12:59:16;;;;;;;;;;;21.60;99.90;;;;;;5065682;28;20448;-77
2022/08/29 13:01:46;;;;;;;8.57;2.33;;;21.50;99.90;;;;;;5069740;28;19969;-77
2022/08/29 13:04:19;;;;;;;11.52;2.60;;;21.50;99.90;;;;;;5070096;28;20024;-77
2022/08/29 13:06:52;;;;;;;9.68;2.67;;;21.40;99.90;;;;;;5068379;28;20123;-78
2022/08/29 13:09:30;;;;;;;5.95;2.63;;;21.40;99.90;;;;;;5069426;28;20040;-77
2022/08/29 13:12:30;;;;;;;8.35;3.17;;;21.50;99.90;;;;;;5064341;28;20048;-77